createdAt,value
2024-03-09T00:00:41.613Z,68.57
2024-03-09T00:03:11.132Z,68.30
2024-03-09T00:05:40.638Z,68.90
2024-03-09T00:08:08.479Z,69.29
2024-03-09T00:10:35.061Z,69.00
2024-03-09T00:13:02.618Z,69.27
2024-03-09T00:15:29.663Z,69.38
2024-03-09T00:17:57.694Z,69.28
2024-03-09T00:20:38.047Z,70.02
2024-03-09T00:23:07.658Z,70.35
2024-03-09T00:25:35.562Z,70.33
2024-03-09T00:28:02.091Z,70.59
2024-03-09T00:30:32.391Z,70.08
2024-03-09T00:33:00.505Z,70.43
2024-03-09T00:35:31.302Z,70.45
2024-03-09T00:37:59.345Z,70.94
2024-03-09T00:40:29.815Z,70.87
2024-03-09T00:42:58.145Z,71.21
2024-03-09T00:45:25.323Z,70.97
2024-03-09T00:47:51.970Z,71.59
2024-03-09T00:50:18.766Z,71.35
2024-03-09T00:52:46.607Z,71.73
2024-03-09T00:55:15.504Z,72.30
2024-03-09T00:57:43.786Z,71.75
2024-03-09T01:00:12.158Z,72.35
2024-03-09T01:02:44.081Z,72.41
2024-03-09T01:05:11.760Z,72.64
2024-03-09T01:07:39.347Z,72.75
2024-03-09T01:10:07.387Z,73.14
2024-03-09T01:12:35.003Z,73.61
2024-03-09T01:15:02.611Z,73.25
2024-03-09T01:17:29.248Z,73.84
2024-03-09T01:19:56.566Z,73.63
2024-03-09T01:22:23.734Z,74.13
2024-03-09T01:24:51.028Z,74.21
2024-03-09T01:27:18.300Z,74.38
2024-03-09T01:29:50.692Z,74.55
2024-03-09T01:32:17.423Z,74.52
2024-03-09T01:34:45.437Z,74.69
2024-03-09T01:37:12.055Z,74.94
2024-03-09T01:39:39.727Z,75.19
2024-03-09T01:42:09.549Z,74.91
2024-03-09T01:44:36.540Z,74.92
2024-03-09T01:47:10.233Z,75.14
2024-03-09T01:49:37.850Z,75.58
2024-03-09T01:52:06.316Z,75.75
2024-03-09T01:54:35.731Z,75.47
2024-03-09T01:57:02.671Z,75.53
2024-03-09T01:59:31.025Z,76.12
2024-03-09T02:01:58.753Z,76.29
2024-03-09T02:04:29.079Z,76.17
2024-03-09T02:07:23.400Z,76.44
2024-03-09T02:09:49.974Z,76.40
2024-03-09T02:12:19.279Z,76.25
2024-03-09T02:14:46.086Z,76.87
2024-03-09T02:17:13.536Z,76.84
2024-03-09T02:19:41.571Z,76.98
2024-03-09T02:22:11.293Z,77.22
2024-03-09T02:24:42.403Z,76.72
2024-03-09T02:27:09.401Z,77.24
2024-03-09T02:29:35.868Z,77.50
2024-03-09T02:32:02.973Z,77.23
2024-03-09T02:34:29.716Z,77.54
2024-03-09T02:36:56.180Z,77.85
2024-03-09T02:39:24.649Z,77.79
2024-03-09T02:41:51.247Z,78.02
2024-03-09T02:44:18.402Z,78.33
2024-03-09T02:46:45.587Z,77.87
2024-03-09T02:49:12.137Z,77.97
2024-03-09T02:51:38.736Z,78.32
2024-03-09T02:54:05.486Z,78.73
2024-03-09T02:56:31.949Z,79.06
2024-03-09T02:59:00.001Z,78.99
2024-03-09T03:01:28.124Z,79.29
2024-03-09T03:04:00.013Z,78.97
2024-03-09T03:06:29.588Z,79.22
2024-03-09T03:09:00.270Z,79.20
2024-03-09T03:11:27.074Z,79.82
2024-03-09T03:13:53.972Z,79.86
2024-03-09T03:16:27.101Z,80.09
2024-03-09T03:18:54.282Z,80.07
2024-03-09T03:21:20.714Z,80.40
2024-03-09T03:23:49.999Z,80.04
2024-03-09T03:26:17.922Z,79.92
2024-03-09T03:28:45.989Z,80.62
2024-03-09T03:31:15.610Z,80.90
2024-03-09T03:33:42.305Z,80.57
2024-03-09T03:36:15.053Z,80.85
2024-03-09T03:38:45.295Z,81.02
2024-03-09T03:41:12.102Z,81.02
2024-03-09T03:43:39.350Z,81.15
2024-03-09T03:46:07.365Z,81.03
2024-03-09T03:48:34.598Z,81.73
2024-03-09T03:51:00.983Z,81.54
2024-03-09T03:53:27.934Z,81.41
2024-03-09T03:55:54.558Z,81.86
2024-03-09T03:58:24.042Z,82.17
2024-03-09T04:00:51.052Z,81.94
2024-03-09T04:03:17.861Z,82.60
2024-03-09T04:05:45.454Z,82.65
2024-03-09T04:08:12.259Z,82.43
2024-03-09T04:10:39.002Z,82.54
2024-03-09T04:13:06.380Z,83.08
2024-03-09T04:15:33.739Z,82.79
2024-03-09T04:18:04.686Z,83.10
2024-03-09T04:20:35.146Z,83.11
2024-03-09T04:23:06.152Z,82.97
2024-03-09T04:25:36.899Z,83.10
2024-03-09T04:28:04.305Z,83.07
2024-03-09T04:30:34.166Z,83.10
2024-03-09T04:33:07.040Z,83.70
2024-03-09T04:35:35.235Z,83.51
2024-03-09T04:38:03.184Z,83.63
2024-03-09T04:40:30.603Z,83.74
2024-03-09T04:42:57.402Z,83.67
2024-03-09T04:45:26.156Z,83.95
2024-03-09T04:47:53.774Z,83.86
2024-03-09T04:50:20.911Z,84.05
2024-03-09T04:52:52.148Z,84.48
2024-03-09T04:55:30.169Z,84.45
2024-03-09T04:57:57.304Z,84.15
2024-03-09T05:00:26.049Z,84.43
2024-03-09T05:02:53.204Z,84.13
2024-03-09T05:05:20.315Z,84.13
2024-03-09T05:07:49.217Z,84.52
2024-03-09T05:10:20.604Z,84.69
2024-03-09T05:12:57.482Z,84.38
2024-03-09T05:15:30.458Z,84.27
2024-03-09T05:17:59.782Z,84.55
2024-03-09T05:20:27.281Z,84.43
2024-03-09T05:22:55.641Z,84.45
2024-03-09T05:25:23.048Z,84.27
2024-03-09T05:27:50.655Z,84.40
2024-03-09T05:30:19.863Z,84.28
2024-03-09T05:32:58.408Z,84.69
2024-03-09T05:35:30.291Z,84.33
2024-03-09T05:38:00.120Z,84.47
2024-03-09T05:40:32.836Z,85.02
2024-03-09T05:43:05.449Z,84.68
2024-03-09T05:45:32.108Z,84.91
2024-03-09T05:48:00.079Z,85.03
2024-03-09T05:50:31.846Z,85.04
2024-03-09T05:53:01.646Z,85.08
2024-03-09T05:55:29.142Z,85.10
2024-03-09T05:57:57.078Z,85.23
2024-03-09T06:00:30.183Z,84.89
2024-03-09T06:02:58.482Z,84.72
2024-03-09T06:05:32.228Z,84.58
2024-03-09T06:07:59.756Z,84.65
2024-03-09T06:10:27.417Z,85.16
2024-03-09T06:12:55.049Z,84.83
2024-03-09T06:15:26.000Z,84.61
2024-03-09T06:18:00.154Z,84.38
2024-03-09T06:20:28.256Z,84.48
2024-03-09T06:22:56.980Z,84.30
2024-03-09T06:25:24.902Z,84.42
2024-03-09T06:27:53.758Z,84.80
2024-03-09T06:30:20.904Z,84.39
2024-03-09T06:32:50.452Z,84.26
2024-03-09T06:35:20.343Z,84.30
2024-03-09T06:38:02.729Z,84.02
2024-03-09T06:40:34.136Z,84.42
2024-03-09T06:43:08.383Z,83.95
2024-03-09T06:45:37.460Z,84.00
2024-03-09T06:48:07.291Z,84.08
2024-03-09T06:50:36.970Z,83.43
2024-03-09T06:53:04.779Z,83.18
2024-03-09T06:55:31.439Z,83.08
2024-03-09T06:58:03.074Z,83.03
2024-03-09T07:00:31.660Z,82.96
2024-03-09T07:03:01.560Z,82.52
2024-03-09T07:05:28.978Z,81.93
2024-03-09T07:07:59.736Z,81.83
2024-03-09T07:10:28.490Z,81.10
2024-03-09T07:12:55.416Z,81.19
2024-03-09T07:15:23.369Z,81.00
2024-03-09T07:17:51.086Z,80.19
2024-03-09T07:20:19.238Z,80.27
2024-03-09T07:22:50.859Z,78.96
2024-03-09T07:25:20.470Z,77.71
2024-03-09T07:27:49.424Z,77.23
2024-03-09T07:30:16.060Z,76.47
2024-03-09T07:32:50.329Z,75.63
2024-03-09T07:35:21.438Z,75.21
2024-03-09T07:37:56.556Z,73.59
2024-03-09T07:40:25.670Z,72.88
2024-03-09T07:42:56.417Z,72.81
2024-03-09T07:45:24.627Z,70.51
2024-03-09T07:47:51.768Z,70.56
2024-03-09T07:50:23.639Z,70.60
2024-03-09T07:52:55.613Z,69.93
2024-03-09T07:55:25.605Z,67.98
2024-03-09T07:58:09.072Z,70.86
2024-03-09T08:00:45.226Z,67.52
2024-03-09T08:03:13.363Z,68.71
2024-03-09T08:05:39.909Z,69.53
2024-03-09T08:08:11.096Z,70.88
2024-03-09T08:10:40.399Z,69.59
2024-03-09T08:13:06.865Z,69.27
2024-03-09T08:15:33.758Z,67.18
2024-03-09T08:18:00.386Z,65.79
2024-03-09T08:20:28.002Z,67.02
2024-03-09T08:22:55.387Z,67.54
2024-03-09T08:25:26.652Z,63.50
2024-03-09T08:27:55.804Z,63.02
2024-03-09T08:30:22.424Z,62.40
2024-03-09T08:32:51.835Z,63.39
2024-03-09T08:35:20.230Z,63.45
2024-03-09T08:37:47.885Z,65.89
2024-03-09T08:40:18.717Z,64.05
2024-03-09T08:42:50.938Z,64.43
2024-03-09T08:45:17.418Z,64.65
2024-03-09T08:47:43.966Z,64.35
2024-03-09T08:50:13.839Z,62.71
2024-03-09T08:52:41.385Z,61.90
2024-03-09T08:55:11.056Z,59.59
2024-03-09T08:57:38.325Z,60.00
2024-03-09T09:00:06.494Z,58.18
2024-03-09T09:02:34.005Z,58.55
2024-03-09T09:05:01.501Z,59.33
2024-03-09T09:07:28.506Z,60.75
2024-03-09T09:09:54.949Z,59.06
2024-03-09T09:12:21.334Z,55.89
2024-03-09T09:14:48.166Z,57.50
2024-03-09T09:17:14.701Z,56.93
2024-03-09T09:19:41.244Z,55.23
2024-03-09T09:22:08.603Z,55.02
2024-03-09T09:24:35.331Z,54.95
2024-03-09T09:27:01.730Z,54.92
2024-03-09T09:29:31.461Z,54.18
2024-03-09T09:32:01.797Z,55.57
2024-03-09T09:34:34.857Z,56.26
2024-03-09T09:37:01.546Z,55.99
2024-03-09T09:39:34.076Z,53.62
2024-03-09T09:42:01.205Z,54.84
2024-03-09T09:44:29.270Z,54.34
2024-03-09T09:47:00.540Z,53.99
2024-03-09T09:49:27.531Z,54.23
2024-03-09T09:51:58.629Z,53.58
2024-03-09T09:54:28.089Z,51.59
2024-03-09T09:56:57.382Z,49.96
2024-03-09T09:59:25.076Z,49.59
2024-03-09T10:01:52.052Z,46.55
2024-03-09T10:04:18.678Z,46.18
2024-03-09T10:06:46.199Z,49.48
2024-03-09T10:09:25.766Z,47.96
2024-03-09T10:11:52.254Z,50.79
2024-03-09T10:14:28.730Z,49.03
2024-03-09T10:16:55.661Z,50.69
2024-03-09T10:19:22.278Z,51.97
2024-03-09T10:21:52.988Z,51.86
2024-03-09T10:24:19.821Z,51.75
2024-03-09T10:26:46.734Z,51.01
2024-03-09T10:29:16.988Z,50.68
2024-03-09T10:31:44.686Z,50.81
2024-03-09T10:34:14.140Z,53.08
2024-03-09T10:36:41.023Z,50.75
2024-03-09T10:39:08.233Z,48.76
2024-03-09T10:41:36.824Z,48.45
2024-03-09T10:44:04.438Z,48.39
2024-03-09T10:46:33.588Z,49.41
2024-03-09T10:49:00.249Z,50.53
2024-03-09T10:51:26.884Z,49.27
2024-03-09T10:54:08.267Z,49.39
2024-03-09T10:56:35.817Z,47.49
2024-03-09T10:59:02.478Z,46.54
2024-03-09T11:01:29.186Z,48.90
2024-03-09T11:03:55.607Z,49.61
2024-03-09T11:06:23.261Z,49.21
2024-03-09T11:08:54.670Z,48.06
2024-03-09T11:11:26.391Z,46.87
2024-03-09T11:13:53.038Z,49.31
2024-03-09T11:16:22.495Z,49.67
2024-03-09T11:18:54.950Z,50.33
2024-03-09T11:21:35.921Z,49.47
2024-03-09T11:24:08.824Z,50.02
2024-03-09T11:26:57.289Z,48.82
2024-03-09T11:29:31.377Z,48.92
2024-03-09T11:31:59.953Z,49.55
2024-03-09T11:34:27.731Z,48.10
2024-03-09T11:37:02.546Z,46.79
2024-03-09T11:39:32.533Z,48.06
2024-03-09T11:42:02.019Z,48.12
2024-03-09T11:44:30.819Z,48.33
2024-03-09T11:46:58.266Z,48.88
2024-03-09T11:49:34.245Z,50.51
2024-03-09T11:52:03.931Z,52.35
2024-03-09T11:54:30.721Z,53.26
2024-03-09T11:57:00.135Z,53.36
2024-03-09T11:59:27.187Z,53.56
2024-03-09T12:02:00.660Z,53.98
2024-03-09T12:04:34.319Z,53.58
2024-03-09T12:07:09.118Z,53.46
2024-03-09T12:09:35.991Z,53.17
2024-03-09T12:12:20.646Z,51.62
2024-03-09T12:14:47.964Z,51.83
2024-03-09T12:17:16.033Z,51.96
2024-03-09T12:19:43.751Z,52.19
2024-03-09T12:22:11.379Z,52.60
2024-03-09T12:24:37.843Z,52.16
2024-03-09T12:27:04.452Z,51.65
2024-03-09T12:29:33.968Z,52.12
2024-03-09T12:32:00.602Z,53.04
2024-03-09T12:34:27.713Z,53.48
2024-03-09T12:36:55.314Z,53.32
2024-03-09T12:39:21.905Z,52.82
2024-03-09T12:41:52.715Z,53.17
2024-03-09T12:44:19.608Z,53.03
2024-03-09T12:46:46.173Z,52.56
2024-03-09T12:49:15.245Z,52.34
2024-03-09T12:51:50.001Z,52.18
2024-03-09T12:54:19.813Z,51.93
2024-03-09T12:56:49.144Z,51.50
2024-03-09T12:59:28.419Z,52.98
2024-03-09T13:01:55.973Z,53.12
2024-03-09T13:04:27.465Z,52.62
2024-03-09T13:06:56.853Z,52.91
2024-03-09T13:09:31.603Z,52.72
2024-03-09T13:11:58.645Z,53.01
2024-03-09T13:14:25.117Z,53.33
2024-03-09T13:16:51.930Z,53.68
2024-03-09T13:19:18.720Z,53.76
2024-03-09T13:21:56.128Z,53.57
2024-03-09T13:24:23.885Z,53.37
2024-03-09T13:26:54.619Z,53.27
2024-03-09T13:29:29.032Z,53.54
2024-03-09T13:31:56.464Z,53.10
2024-03-09T13:34:22.881Z,52.86
2024-03-09T13:36:49.259Z,53.02
2024-03-09T13:39:17.534Z,52.71
2024-03-09T13:41:46.050Z,53.03
2024-03-09T13:44:13.484Z,53.34
2024-03-09T13:46:42.279Z,53.65
2024-03-09T13:49:14.484Z,53.37
2024-03-09T13:51:44.675Z,52.49
2024-03-09T13:54:11.283Z,52.03
2024-03-09T13:56:38.316Z,52.66
2024-03-09T13:59:15.473Z,52.32
2024-03-09T14:01:44.577Z,52.04
2024-03-09T14:04:12.228Z,51.42
2024-03-09T14:06:55.999Z,52.53
2024-03-09T14:09:31.485Z,53.31
2024-03-09T14:11:58.191Z,53.87
2024-03-09T14:14:24.689Z,52.70
2024-03-09T14:16:51.122Z,52.08
2024-03-09T14:19:20.574Z,51.92
2024-03-09T14:21:50.373Z,53.18
2024-03-09T14:24:16.962Z,53.50
2024-03-09T14:26:45.777Z,52.55
2024-03-09T14:29:14.536Z,54.34
2024-03-09T14:31:42.261Z,54.14
2024-03-09T14:34:09.149Z,54.15
2024-03-09T14:36:35.779Z,53.75
2024-03-09T14:39:03.033Z,53.41
2024-03-09T14:41:29.519Z,54.57
2024-03-09T14:43:57.965Z,54.64
2024-03-09T14:46:25.155Z,54.49
2024-03-09T14:48:54.263Z,54.18
2024-03-09T14:51:23.593Z,54.12
2024-03-09T14:53:51.181Z,54.34
2024-03-09T14:56:18.535Z,54.13
2024-03-09T14:58:50.235Z,53.77
2024-03-09T15:01:21.234Z,54.55
2024-03-09T15:03:47.877Z,54.61
2024-03-09T15:06:18.453Z,54.50
2024-03-09T15:08:45.063Z,54.63
2024-03-09T15:11:17.826Z,54.08
2024-03-09T15:13:52.528Z,54.14
2024-03-09T15:16:23.495Z,55.30
2024-03-09T15:18:53.698Z,55.28
2024-03-09T15:21:24.471Z,55.47
2024-03-09T15:23:52.866Z,55.01
2024-03-09T15:26:20.954Z,55.16
2024-03-09T15:28:47.823Z,55.10
2024-03-09T15:31:15.885Z,55.69
2024-03-09T15:33:42.951Z,56.39
2024-03-09T15:36:11.806Z,56.35
2024-03-09T15:38:41.961Z,56.46
2024-03-09T15:41:12.798Z,56.54
2024-03-09T15:43:42.978Z,56.77
2024-03-09T15:46:12.359Z,56.39
2024-03-09T15:48:40.075Z,57.02
2024-03-09T15:51:07.597Z,56.91
2024-03-09T15:53:35.631Z,57.09
2024-03-09T15:56:02.466Z,56.61
2024-03-09T15:58:31.506Z,57.31
2024-03-09T16:01:04.029Z,57.02
2024-03-09T16:03:32.796Z,56.44
2024-03-09T16:06:03.343Z,57.40
2024-03-09T16:08:29.950Z,57.75
2024-03-09T16:10:56.972Z,58.53
2024-03-09T16:13:23.509Z,57.67
2024-03-09T16:15:51.046Z,58.40
2024-03-09T16:18:18.434Z,58.82
2024-03-09T16:20:45.122Z,58.65
2024-03-09T16:23:19.185Z,58.88
2024-03-09T16:25:50.296Z,58.71
2024-03-09T16:28:18.057Z,58.98
2024-03-09T16:30:45.310Z,58.46
2024-03-09T16:33:15.220Z,58.27
2024-03-09T16:35:45.408Z,58.18
2024-03-09T16:38:12.005Z,58.41
2024-03-09T16:40:40.299Z,58.27
2024-03-09T16:43:08.853Z,58.22
2024-03-09T16:45:35.686Z,58.01
2024-03-09T16:48:07.361Z,57.84
2024-03-09T16:50:34.508Z,58.41
2024-03-09T16:53:01.198Z,58.73
2024-03-09T16:55:31.218Z,59.18
2024-03-09T16:58:02.573Z,59.10
2024-03-09T17:00:29.458Z,59.45
2024-03-09T17:02:55.897Z,59.98
2024-03-09T17:05:27.811Z,59.54
2024-03-09T17:07:55.539Z,59.47
2024-03-09T17:10:22.076Z,59.87
2024-03-09T17:12:50.782Z,60.01
2024-03-09T17:15:20.037Z,59.84
2024-03-09T17:17:49.143Z,60.71
2024-03-09T17:20:27.196Z,60.62
2024-03-09T17:22:56.979Z,60.57
2024-03-09T17:25:23.867Z,60.53
2024-03-09T17:27:51.070Z,60.65
2024-03-09T17:30:17.654Z,60.22
2024-03-09T17:32:47.640Z,60.40
2024-03-09T17:35:23.582Z,60.48
2024-03-09T17:37:50.897Z,60.61
2024-03-09T17:40:17.939Z,60.75
2024-03-09T17:42:55.174Z,60.91
2024-03-09T17:45:27.066Z,60.84
2024-03-09T17:47:53.875Z,60.84
2024-03-09T17:50:20.724Z,61.23
2024-03-09T17:52:48.725Z,61.14
2024-03-09T17:55:20.713Z,60.82
2024-03-09T17:57:52.862Z,61.24
2024-03-09T18:00:25.648Z,60.88
2024-03-09T18:02:58.119Z,60.80
2024-03-09T18:05:29.884Z,61.25
2024-03-09T18:07:58.420Z,61.09
2024-03-09T18:10:28.556Z,61.16
2024-03-09T18:12:55.993Z,60.87
2024-03-09T18:15:24.128Z,61.27
2024-03-09T18:17:52.241Z,60.94
2024-03-09T18:20:23.963Z,60.18
2024-03-09T18:22:54.440Z,60.78
2024-03-09T18:25:21.677Z,61.05
2024-03-09T18:27:49.013Z,60.27
2024-03-09T18:30:18.668Z,60.21
2024-03-09T18:32:49.651Z,59.84
2024-03-09T18:35:23.524Z,59.72
2024-03-09T18:37:51.386Z,61.29
2024-03-09T18:40:17.909Z,61.17
2024-03-09T18:42:48.443Z,60.73
2024-03-09T18:45:15.894Z,61.75
2024-03-09T18:47:42.976Z,61.77
2024-03-09T18:50:10.443Z,61.68
2024-03-09T18:52:40.387Z,61.87
2024-03-09T18:55:12.453Z,62.05
2024-03-09T18:57:40.310Z,62.10
2024-03-09T19:00:17.182Z,62.38
2024-03-09T19:02:46.915Z,62.21
2024-03-09T19:05:24.379Z,62.07
2024-03-09T19:07:53.019Z,62.40
2024-03-09T19:10:20.092Z,62.59
2024-03-09T19:12:48.414Z,62.52
2024-03-09T19:15:15.258Z,62.72
2024-03-09T19:17:43.374Z,62.99
2024-03-09T19:20:13.305Z,63.08
2024-03-09T19:22:40.993Z,63.24
2024-03-09T19:25:11.733Z,63.16
2024-03-09T19:27:42.079Z,63.27
2024-03-09T19:30:16.684Z,63.55
2024-03-09T19:32:45.629Z,63.73
2024-03-09T19:35:16.950Z,64.25
2024-03-09T19:37:44.057Z,64.27
2024-03-09T19:40:21.840Z,64.71
2024-03-09T19:42:49.484Z,65.03
2024-03-09T19:45:20.956Z,65.37
2024-03-09T19:47:49.769Z,65.52
2024-03-09T19:50:17.278Z,65.59
2024-03-09T19:52:48.707Z,65.83
2024-03-09T19:55:16.973Z,65.94
2024-03-09T19:57:44.120Z,66.02
2024-03-09T20:00:14.737Z,66.53
2024-03-09T20:02:41.833Z,66.82
2024-03-09T20:05:12.185Z,66.89
2024-03-09T20:07:39.341Z,67.11
2024-03-09T20:10:07.161Z,67.12
2024-03-09T20:12:34.708Z,67.53
2024-03-09T20:15:02.448Z,67.55
2024-03-09T20:17:28.997Z,67.67
2024-03-09T20:19:57.750Z,67.65
2024-03-09T20:22:25.094Z,67.88
2024-03-09T20:24:51.547Z,68.14
2024-03-09T20:27:17.930Z,67.99
2024-03-09T20:29:44.319Z,68.23
2024-03-09T20:32:11.198Z,68.29
2024-03-09T20:34:37.781Z,68.58
2024-03-09T20:37:04.399Z,68.67
2024-03-09T20:39:30.842Z,68.68
2024-03-09T20:41:57.212Z,68.68
2024-03-09T20:44:23.677Z,68.68
2024-03-09T20:46:50.265Z,68.85
2024-03-09T20:49:16.968Z,68.82
2024-03-09T20:51:43.359Z,69.06
2024-03-09T20:54:10.070Z,68.96
2024-03-09T20:56:38.363Z,69.02
2024-03-09T20:59:04.827Z,69.15
2024-03-09T21:01:31.542Z,69.36
2024-03-09T21:03:57.903Z,69.25
2024-03-09T21:06:24.401Z,69.47
2024-03-09T21:08:52.390Z,69.71
2024-03-09T21:11:18.870Z,69.68
2024-03-09T21:13:45.327Z,69.72
2024-03-09T21:16:11.891Z,69.86
2024-03-09T21:18:38.445Z,70.00
2024-03-09T21:21:05.294Z,70.08
2024-03-09T21:23:31.882Z,70.06
2024-03-09T21:25:58.432Z,70.08
2024-03-09T21:28:25.877Z,70.08
2024-03-09T21:30:53.729Z,70.23
2024-03-09T21:33:21.979Z,70.64
2024-03-09T21:35:48.364Z,70.25
2024-03-09T21:38:15.733Z,70.53
2024-03-09T21:40:42.338Z,70.59
2024-03-09T21:43:09.184Z,70.56
2024-03-09T21:45:36.166Z,70.59
2024-03-09T21:48:04.237Z,70.67
2024-03-09T21:50:31.096Z,70.89
2024-03-09T21:53:00.080Z,70.83
2024-03-09T21:55:27.370Z,70.73
2024-03-09T21:57:54.686Z,71.14
2024-03-09T22:00:21.627Z,71.25
2024-03-09T22:02:50.130Z,71.33
2024-03-09T22:05:20.894Z,71.51
2024-03-09T22:07:53.569Z,71.75
2024-03-09T22:10:22.654Z,71.61
2024-03-09T22:12:51.747Z,72.36
2024-03-09T22:15:18.767Z,71.49
2024-03-09T22:17:45.422Z,71.88
2024-03-09T22:20:16.321Z,72.12
2024-03-09T22:22:45.121Z,72.40
2024-03-09T22:25:16.263Z,72.49
2024-03-09T22:27:45.082Z,72.45
2024-03-09T22:30:13.038Z,72.66
2024-03-09T22:32:40.941Z,72.80
2024-03-09T22:35:11.598Z,72.93
2024-03-09T22:37:39.454Z,72.94
2024-03-09T22:40:14.109Z,73.02
2024-03-09T22:42:40.783Z,73.35
2024-03-09T22:45:08.982Z,73.33
2024-03-09T22:47:37.019Z,73.45
2024-03-09T22:50:04.473Z,73.39
2024-03-09T22:52:31.808Z,73.86
2024-03-09T22:54:58.373Z,73.78
2024-03-09T22:57:24.770Z,73.95
2024-03-09T22:59:51.915Z,73.82
2024-03-09T23:02:18.376Z,74.24
2024-03-09T23:04:44.894Z,74.42
2024-03-09T23:07:11.321Z,74.27
2024-03-09T23:09:40.642Z,74.63
2024-03-09T23:12:10.778Z,74.91
2024-03-09T23:14:38.496Z,74.79
2024-03-09T23:17:06.146Z,75.15
2024-03-09T23:19:32.719Z,74.91
2024-03-09T23:22:01.842Z,75.11
2024-03-09T23:24:29.276Z,75.23
2024-03-09T23:26:58.150Z,75.36
2024-03-09T23:29:26.610Z,75.47
2024-03-09T23:31:53.110Z,75.42
2024-03-09T23:34:22.592Z,75.60
2024-03-09T23:36:49.770Z,75.67
2024-03-09T23:39:16.733Z,75.61
2024-03-09T23:41:44.011Z,75.84
2024-03-09T23:44:13.779Z,75.81
2024-03-09T23:46:40.989Z,75.89
2024-03-09T23:49:10.506Z,75.91
2024-03-09T23:51:37.688Z,75.85
2024-03-09T23:54:05.746Z,75.66
2024-03-09T23:56:33.142Z,75.99
2024-03-09T23:59:00.273Z,76.18
